Time;durP1;ratioP1;P1;durP2;ratioP2;P2;SDS_P1;SDS_P2;PMS_P1;PMS_P2;Temp;Humidity;BMP_temperature;BMP_pressure;BME280_temperature;BME280_humidity;BME280_pressure;Samples;Min_cycle;Max_cycle;Signal;HPM_P1;HPM_P2
2023/09/18 00:11:35;;;;;;;;;;;;;;;;;;5034696;28;19978;-95
2023/09/18 00:33:25;;;;;;;;;;;;;;;;;;;;;
2023/09/18 00:36:05;;;;;;;;;;;;;;;;;;5014517;28;19937;-96
2023/09/18 00:55:26;;;;;;;;;;;;;;;;;;4975058;28;20003;-95
2023/09/18 00:57:52;;;;;;;;;;;;;;;;;;4974539;28;20467;-93
2023/09/18 01:00:20;;;;;;;;;;;;;;;;;;4971261;28;19935;-95
2023/09/18 01:05:38;;;;;;;;;;;;;;;;;;4947484;29;19915;-95
2023/09/18 01:08:10;;;;;;;;;;;;;;;;;;4938409;29;20374;-96
2023/09/18 01:10:36;;;;;;;;;;;;;;;;;;4942098;28;19918;-95
2023/09/18 01:13:05;;;;;;;;;;;;;;;;;;4974333;28;19910;-95
2023/09/18 01:15:31;;;;;;;;;;;;;;;;;;4972133;28;19914;-94
2023/09/18 01:20:46;;;;;;;;;;;;;;;;;;4950833;28;19962;-96
2023/09/18 01:23:19;;;;;;;;;;;;;;;;;;5033781;28;19901;-94
2023/09/18 01:25:48;;;;;;;;;;;;;;;;;;5076326;28;19924;-95
2023/09/18 01:28:16;;;;;;;;;;;;;;;;;;5073803;28;19968;-94
2023/09/18 01:30:42;;;;;;;;;;;;;;;;;;5057049;28;20369;-93
2023/09/18 01:33:11;;;;;;;;;;;;;;;;;;5053077;28;19966;-95
2023/09/18 01:35:37;;;;;;;;;;;;;;;;;;5053098;28;19917;-95
2023/09/18 01:38:03;;;;;;;;;;;;;;;;;;5036548;28;19909;-94
2023/09/18 01:40:32;;;;;;;;;;;;;;;;;;5036699;28;19915;-94
2023/09/18 01:42:58;;;;;;;;;;;;;;;;;;5036959;28;20326;-94
2023/09/18 01:45:24;;;;;;;;;;;;;;;;;;4992449;28;19964;-93
2023/09/18 01:47:50;;;;;;;;;;;;;;;;;;4976580;28;19922;-94
2023/09/18 01:50:22;;;;;;;;;;;;;;;;;;4976834;28;19917;-94
2023/09/18 01:52:56;;;;;;;;;;;;;;;;;;4977245;28;20364;-95
2023/09/18 01:58:10;;;;;;;;;;;;;;;;;;4993369;28;19964;-95
2023/09/18 02:00:38;;;;;;;;;;;;;;;;;;4977062;28;19949;-94
2023/09/18 02:03:11;;;;;;;;;;;;;;;;;;5184338;23;19931;-95
2023/09/18 02:05:37;;;;;;;;;;;;;;;;;;5077223;28;19904;-94
2023/09/18 02:08:03;;;;;;;;;;;;;;;;;;5059440;28;19921;-94
2023/09/18 02:10:32;;;;;;;;;;;;;;;;;;5053220;28;19915;-93
2023/09/18 02:12:58;;;;;;;;;;;;;;;;;;5053017;28;19947;-95
2023/09/18 02:15:30;;;;;;;;;;;;;;;;;;5056169;28;19916;-96
2023/09/18 02:17:55;;;;;;;;;;;;;;;;;;5075968;28;19908;-95
2023/09/18 02:20:21;;;;;;;;;;;;;;;;;;5076093;28;20281;-95
2023/09/18 02:22:50;;;;;;;;;;;;;;;;;;5064887;28;19913;-94
2023/09/18 02:25:19;;;;;;;;;;;;;;;;;;5056305;28;19959;-95
2023/09/18 02:27:49;;;;;;;;;;;;;;;;;;5056053;28;19909;-94
2023/09/18 02:30:19;;;;;;;;;;;;;;;;;;5056049;28;20362;-96
2023/09/18 02:32:48;;;;;;;;;;;;;;;;;;5057654;28;19917;-96
2023/09/18 02:35:20;;;;;;;;;;;;;;;;;;5076535;28;19916;-95
2023/09/18 02:37:46;;;;;;;;;;;;;;;;;;5076161;28;19908;-95
2023/09/18 02:40:18;;;;;;;;;;;;;;;;;;5275197;23;19939;-95
2023/09/18 02:42:44;;;;;;;;;;;;;;;;;;5024973;28;19917;-95
2023/09/18 02:45:19;;;;;;;;;;;;;;;;;;5037438;28;19917;-95
2023/09/18 02:47:48;;;;;;;;;;;;;;;;;;5019587;28;19909;-95
2023/09/18 02:50:17;;;;;;;;;;;;;;;;;;5019208;28;19936;-93
2023/09/18 02:52:43;;;;;;;;;;;;;;;;;;5019134;28;19909;-94
2023/09/18 03:00:39;;;;;;;;;;;;;;;;;;5016579;28;19921;-94
2023/09/18 03:03:08;;;;;;;;;;;;;;;;;;4999988;28;19909;-95
2023/09/18 03:05:34;;;;;;;;;;;;;;;;;;5020073;28;19913;-95
2023/09/18 03:08:00;;;;;;;;;;;;;;;;;;5018694;28;19992;-94
2023/09/18 03:10:29;;;;;;;;;;;;;;;;;;5018813;28;19916;-94
2023/09/18 03:12:58;;;;;;;;;;;;;;;;;;5019045;28;19909;-95
2023/09/18 03:15:27;;;;;;;;;;;;;;;;;;5018672;28;19909;-94
2023/09/18 03:17:53;;;;;;;;;;;;;;;;;;5018968;28;19909;-95
2023/09/18 03:20:19;;;;;;;;;;;;;;;;;;5018670;28;19916;-94
2023/09/18 03:22:45;;;;;;;;;;;;;;;;;;5018849;28;20313;-95
2023/09/18 03:25:14;;;;;;;;;;;;;;;;;;5018364;28;20012;-95
2023/09/18 03:27:40;;;;;;;;;;;;;;;;;;5008573;28;19914;-95
2023/09/18 03:30:10;;;;;;;;;;;;;;;;;;4998987;28;20004;-94
2023/09/18 03:32:39;;;;;;;;;;;;;;;;;;4993583;28;20438;-95
2023/09/18 03:35:05;;;;;;;;;;;;;;;;;;4999007;28;19910;-94
2023/09/18 03:37:31;;;;;;;;;;;;;;;;;;4999527;28;19921;-94
2023/09/18 03:39:57;;;;;;;;;;;;;;;;;;4998994;28;19910;-95
2023/09/18 03:42:26;;;;;;;;;;;;;;;;;;5006623;28;19921;-95
2023/09/18 03:44:52;;;;;;;;;;;;;;;;;;5019802;28;19916;-93
2023/09/18 03:47:21;;;;;;;;;;;;;;;;;;5017906;28;19914;-94
2023/09/18 03:49:47;;;;;;;;;;;;;;;;;;5018722;28;19953;-94
2023/09/18 03:52:16;;;;;;;;;;;;;;;;;;5037313;28;19924;-95
2023/09/18 03:54:45;;;;;;;;;;;;;;;;;;5017935;28;19909;-95
2023/09/18 03:57:15;;;;;;;;;;;;;;;;;;5018237;28;19913;-95
2023/09/18 03:59:44;;;;;;;;;;;;;;;;;;5012313;28;19920;-94
2023/09/18 04:02:13;;;;;;;;;;;;;;;;;;5018036;28;19910;-95
2023/09/18 04:04:42;;;;;;;;;;;;;;;;;;5017967;28;19951;-96
2023/09/18 04:07:11;;;;;;;;;;;;;;;;;;5017792;28;19943;-94
2023/09/18 04:09:37;;;;;;;;;;;;;;;;;;5017635;28;19983;-94
2023/09/18 04:12:05;;;;;;;;;;;;;;;;;;5018256;28;19920;-95
2023/09/18 04:14:34;;;;;;;;;;;;;;;;;;5018929;28;19913;-95
2023/09/18 04:17:03;;;;;;;;;;;;;;;;;;5019468;28;20248;-95
2023/09/18 04:19:30;;;;;;;;;;;;;;;;;;5020051;28;19909;-95
2023/09/18 04:21:56;;;;;;;;;;;;;;;;;;5013097;28;19994;-96
2023/09/18 04:24:25;;;;;;;;;;;;;;;;;;5018459;28;19999;-94
2023/09/18 04:29:30;;;;;;;;;;;;;;;;;;6140462;22;20152;-95
2023/09/18 04:31:59;;;;;;;;;;;;;;;;;;5031371;28;19940;-96
2023/09/18 04:37:01;;;;;;;;;;;;;;;;;;5406698;22;19909;-94
2023/09/18 04:39:29;;;;;;;;;;;;;;;;;;5193515;22;19925;-94
2023/09/18 04:44:54;;;;;;;;;;;;;;;;;;5027142;28;19909;-94
2023/09/18 04:47:22;;;;;;;;;;;;;;;;;;5039587;28;19920;-94
2023/09/18 04:49:52;;;;;;;;;;;;;;;;;;5038324;28;19917;-95
2023/09/18 04:52:21;;;;;;;;;;;;;;;;;;5039002;28;19976;-95
2023/09/18 04:54:47;;;;;;;;;;;;;;;;;;5037454;28;20259;-94
2023/09/18 04:57:13;;;;;;;;;;;;;;;;;;5036979;28;19955;-95
2023/09/18 04:59:42;;;;;;;;;;;;;;;;;;5036733;28;19908;-95
2023/09/18 05:02:11;;;;;;;;;;;;;;;;;;5039046;28;19917;-95
2023/09/18 05:04:37;;;;;;;;;;;;;;;;;;5030630;28;19913;-92
2023/09/18 05:07:12;;;;;;;;;;;;;;;;;;5017979;28;19967;-94
2023/09/18 05:09:41;;;;;;;;;;;;;;;;;;5018020;28;19921;-93
2023/09/18 05:12:13;;;;;;;;;;;;;;;;;;5017201;28;20369;-96
2023/09/18 05:14:43;;;;;;;;;;;;;;;;;;5016973;28;19913;-94
2023/09/18 05:17:12;;;;;;;;;;;;;;;;;;5032967;28;19996;-94
2023/09/18 05:19:38;;;;;;;;;;;;;;;;;;5036786;28;19909;-93
2023/09/18 05:22:07;;;;;;;;;;;;;;;;;;5015025;28;20399;-92
2023/09/18 05:24:36;;;;;;;;;;;;;;;;;;5036923;28;19908;-93
2023/09/18 05:27:02;;;;;;;;;;;;;;;;;;5028964;28;19970;-92
2023/09/18 05:29:28;;;;;;;;;;;;;;;;;;5035665;28;20007;-94
2023/09/18 05:31:54;;;;;;;;;;;;;;;;;;5037503;28;19951;-93
2023/09/18 05:34:26;;;;;;;;;;;;;;;;;;5032063;28;19975;-94
2023/09/18 05:36:52;;;;;;;;;;;;;;;;;;5052204;28;19901;-93
2023/09/18 05:39:31;;;;;;;;;;;;;;;;;;5048173;28;19935;-94
2023/09/18 05:41:58;;;;;;;;;;;;;;;;;;5034812;28;20014;-94
2023/09/18 05:44:27;;;;;;;;;;;;;;;;;;5016175;28;19931;-93
2023/09/18 05:46:53;;;;;;;;;;;;;;;;;;5024446;28;19909;-94
2023/09/18 05:49:28;;;;;;;;;;;;;;;;;;5026443;28;19917;-94
2023/09/18 05:51:54;;;;;;;;;;;;;;;;;;5020645;28;19913;-93
2023/09/18 05:54:20;;;;;;;;;;;;;;;;;;5020243;28;19913;-94
2023/09/18 05:56:46;;;;;;;;;;;;;;;;;;5020499;28;19913;-94
2023/09/18 05:59:12;;;;;;;;;;;;;;;;;;5020570;28;20277;-94
2023/09/18 06:01:38;;;;;;;;;;;;;;;;;;5020410;28;19967;-96
2023/09/18 06:04:07;;;;;;;;;;;;;;;;;;5021132;28;19912;-94
2023/09/18 06:06:39;;;;;;;;;;;;;;;;;;5021692;28;19915;-95
2023/09/18 06:09:05;;;;;;;;;;;;;;;;;;5024229;28;19918;-94
2023/09/18 06:11:31;;;;;;;;;;;;;;;;;;5024999;28;20337;-96
2023/09/18 06:13:57;;;;;;;;;;;;;;;;;;5021317;28;19915;-94
2023/09/18 06:16:23;;;;;;;;;;;;;;;;;;5020799;28;19909;-96
2023/09/18 06:18:49;;;;;;;;;;;;;;;;;;5020491;28;19940;-94
2023/09/18 06:21:15;;;;;;;;;;;;;;;;;;5020255;28;19916;-93
2023/09/18 06:23:41;;;;;;;;;;;;;;;;;;5014740;28;19920;-93
2023/09/18 06:26:07;;;;;;;;;;;;;;;;;;5020163;28;19909;-92
2023/09/18 06:28:33;;;;;;;;;;;;;;;;;;5020008;28;19917;-94
2023/09/18 06:30:59;;;;;;;;;;;;;;;;;;5020252;28;19963;-91
2023/09/18 06:38:58;;;;;;;;;;;;;;;;;;5045787;28;19917;-94
2023/09/18 06:41:37;;;;;;;;;;;;;;;;;;5023533;28;19921;-95
2023/09/18 06:44:18;;;;;;;;;;;;;;;;;;5019394;28;19913;-95
2023/09/18 06:46:53;;;;;;;;;;;;;;;;;;5020310;28;19909;-96
2023/09/18 06:49:19;;;;;;;;;;;;;;;;;;5019720;28;19924;-93
2023/09/18 06:54:29;;;;;;;;;;;;;;;;;;5146432;23;19935;-95
2023/09/18 06:56:58;;;;;;;;;;;;;;;;;;5080835;28;19908;-94
2023/09/18 06:59:30;;;;;;;;;;;;;;;;;;5077743;28;19908;-95
2023/09/18 07:02:06;;;;;;;;;;;;;;;;;;;;;
2023/09/18 07:04:36;;;;;;;;;;;;;;;;;;5077508;28;19908;-94
2023/09/18 07:07:12;;;;;;;;;;;;;;;;;;5076586;28;19909;-93
2023/09/18 07:09:38;;;;;;;;;;;;;;;;;;5077678;28;20253;-93
2023/09/18 07:12:04;;;;;;;;;;;;;;;;;;5077094;28;19927;-93
2023/09/18 07:14:33;;;;;;;;;;;;;;;;;;5075113;28;20284;-94
2023/09/18 07:17:04;;;;;;;;;;;;;;;;;;5038782;28;19935;-93
2023/09/18 07:19:33;;;;;;;;;;;;;;;;;;5039433;28;19917;-95
2023/09/18 07:22:17;;;;;;;;;;;;;;;;;;5062664;28;19920;-95
2023/09/18 07:24:46;;;;;;;;;;;;;;;;;;5070258;28;19924;-94
2023/09/18 07:27:12;;;;;;;;;;;;;;;;;;5018359;28;19945;-94
2023/09/18 07:29:41;;;;;;;;;;;;;;;;;;5027753;28;19921;-94
2023/09/18 07:32:10;;;;;;;;;;;;;;;;;;5047346;28;19916;-95
2023/09/18 07:34:39;;;;;;;;;;;;;;;;;;5044122;28;19960;-95
2023/09/18 07:39:47;;;;;;;;;;;;;;;;;;;;;
2023/09/18 07:44:52;;;;;;;;;;;;;;;;;;5219687;22;19935;-94
2023/09/18 07:50:14;;;;;;;;;;;;;;;;;;5033392;28;19916;-94
2023/09/18 07:52:46;;;;;;;;;;;;;;;;;;5038463;28;19912;-96
2023/09/18 07:58:16;;;;;;;;;;;;;;;;;;5055734;28;19920;-95
2023/09/18 08:00:42;;;;;;;;;;;;;;;;;;5038089;28;19909;-92
2023/09/18 08:03:08;;;;;;;;;;;;;;;;;;5038077;28;19909;-90
2023/09/18 08:05:37;;;;;;;;;;;;;;;;;;5037633;28;20003;-89
2023/09/18 08:08:06;;;;;;;;;;;;;;;;;;5037477;28;19920;-89
2023/09/18 08:10:35;;;;;;;;;;;;;;;;;;5038295;28;19909;-89
2023/09/18 08:13:04;;;;;;;;;;;;;;;;;;5036577;28;19912;-90
2023/09/18 08:15:30;;;;;;;;;;;;;;;;;;5037316;28;20361;-90
2023/09/18 08:17:56;;;;;;;;;;;;;;;;;;5037451;28;19916;-91
2023/09/18 08:20:22;;;;;;;;;;;;;;;;;;5028660;28;20015;-89
2023/09/18 08:22:50;;;;;;;;;;;;;;;;;;5029613;28;19960;-89
2023/09/18 08:25:16;;;;;;;;;;;;;;;;;;5037455;28;20418;-89
2023/09/18 08:27:43;;;;;;;;;;;;;;;;;;5038261;28;19909;-91
2023/09/18 08:30:22;;;;;;;;;;;;;;;;;;5039069;28;19921;-89
2023/09/18 08:32:51;;;;;;;;;;;;;;;;;;5038354;28;19909;-90
2023/09/18 08:35:20;;;;;;;;;;;;;;;;;;5043036;28;19963;-93
2023/09/18 08:37:46;;;;;;;;;;;;;;;;;;5036166;28;20297;-93
2023/09/18 08:40:13;;;;;;;;;;;;;;;;;;5021866;28;19921;-93
2023/09/18 08:42:39;;;;;;;;;;;;;;;;;;5021378;28;20015;-93
2023/09/18 08:45:07;;;;;;;;;;;;;;;;;;5036903;28;19974;-95
2023/09/18 08:47:33;;;;;;;;;;;;;;;;;;5020691;28;19909;-93
2023/09/18 08:50:09;;;;;;;;;;;;;;;;;;;;;
2023/09/18 08:52:35;;;;;;;;;;;;;;;;;;5035592;28;20372;-93
2023/09/18 08:55:01;;;;;;;;;;;;;;;;;;5018335;28;19952;-94
2023/09/18 08:57:37;;;;;;;;;;;;;;;;;;;;;
2023/09/18 09:00:07;;;;;;;;;;;;;;;;;;5035393;28;19919;-93
2023/09/18 09:02:42;;;;;;;;;;;;;;;;;;5016906;28;19909;-94
2023/09/18 09:05:08;;;;;;;;;;;;;;;;;;5035328;28;20003;-93
2023/09/18 09:07:34;;;;;;;;;;;;;;;;;;5053120;28;19901;-94
2023/09/18 09:10:00;;;;;;;;;;;;;;;;;;5057232;28;19917;-94
2023/09/18 09:12:48;;;;;;;;;;;;;;;;;;5045706;28;19935;-94
2023/09/18 09:15:12;;;;;;;;;;;;;;;;;;5053720;28;20272;-93
2023/09/18 09:17:59;;;;;;;;;;;;;;;;;;5019708;28;19935;-95
2023/09/18 09:20:24;;;;;;;;;;;;;;;;;;5033762;28;19955;-95
2023/09/18 09:22:50;;;;;;;;;;;;;;;;;;5017688;28;19913;-95
2023/09/18 09:25:17;;;;;;;;;;;;;;;;;;5038935;28;19913;-95
2023/09/18 09:27:43;;;;;;;;;;;;;;;;;;5021339;28;20480;-95
2023/09/18 09:30:09;;;;;;;;;;;;;;;;;;5021527;28;19918;-93
2023/09/18 09:32:35;;;;;;;;;;;;;;;;;;5022678;28;19913;-93
2023/09/18 09:35:04;;;;;;;;;;;;;;;;;;5043001;28;19919;-93
2023/09/18 09:37:33;;;;;;;;;;;;;;;;;;5038048;28;19917;-94
2023/09/18 09:40:08;;;;;;;;;;;;;;;;;;5021777;28;19909;-96
2023/09/18 09:42:37;;;;;;;;;;;;;;;;;;5020863;28;19952;-95
2023/09/18 09:45:03;;;;;;;;;;;;;;;;;;5020400;28;19925;-94
2023/09/18 09:47:32;;;;;;;;;;;;;;;;;;5020501;28;19909;-93
2023/09/18 09:50:02;;;;;;;;;;;;;;;;;;5020618;28;19924;-94
2023/09/18 09:52:30;;;;;;;;;;;;;;;;;;5045942;28;20334;-93
2023/09/18 09:55:04;;;;;;;;;;;;;;;;;;5040230;28;19915;-93
2023/09/18 09:57:33;;;;;;;;;;;;;;;;;;5039546;28;19912;-93
2023/09/18 10:00:00;;;;;;;;;;;;;;;;;;5040441;28;19908;-93
2023/09/18 10:02:26;;;;;;;;;;;;;;;;;;5039706;28;19909;-95
2023/09/18 10:04:56;;;;;;;;;;;;;;;;;;5057580;28;20058;-93
2023/09/18 10:07:22;;;;;;;;;;;;;;;;;;5039819;28;19931;-93
2023/09/18 10:09:48;;;;;;;;;;;;;;;;;;5039619;28;20385;-94
2023/09/18 10:12:20;;;;;;;;;;;;;;;;;;5039797;28;19909;-93
2023/09/18 10:14:48;;;;;;;;;;;;;;;;;;5039350;28;19913;-94
2023/09/18 10:17:26;;;;;;;;;;;;;;;;;;5039322;28;19996;-93
2023/09/18 10:28:18;;;;;;;;;;;;;;;;;;5037268;28;19916;-94
2023/09/18 10:30:47;;;;;;;;;;;;;;;;;;5020164;28;19924;-93
2023/09/18 10:33:13;;;;;;;;;;;;;;;;;;5024116;28;19909;-95
2023/09/18 10:35:39;;;;;;;;;;;;;;;;;;5048791;28;19912;-92
2023/09/18 10:38:14;;;;;;;;;;;;;;;;;;5042273;28;20366;-92
2023/09/18 10:40:44;;;;;;;;;;;;;;;;;;5090897;23;19920;-91
2023/09/18 10:43:10;;;;;;;;;;;;;;;;;;5054641;28;19924;-93
2023/09/18 10:45:36;;;;;;;;;;;;;;;;;;5057541;28;19909;-93
2023/09/18 10:48:07;;;;;;;;;;;;;;;;;;5047281;28;19916;-93
2023/09/18 10:50:36;;;;;;;;;;;;;;;;;;5040779;28;19909;-93
2023/09/18 10:53:02;;;;;;;;;;;;;;;;;;5049016;28;19948;-94
2023/09/18 10:55:38;;;;;;;;;;;;;;;;;;5058355;28;19921;-92
2023/09/18 10:58:04;;;;;;;;;;;;;;;;;;5047305;28;19935;-93
2023/09/18 11:00:30;;;;;;;;;;;;;;;;;;5036121;28;20425;-93
2023/09/18 11:02:58;;;;;;;;;;;;;;;;;;5031641;28;20354;-94
2023/09/18 11:05:30;;;;;;;;;;;;;;;;;;5023525;28;19913;-94
2023/09/18 11:07:59;;;;;;;;;;;;;;;;;;5022812;28;19913;-93
2023/09/18 11:10:32;;;;;;;;;;;;;;;;;;5030548;28;20270;-92
2023/09/18 11:12:58;;;;;;;;;;;;;;;;;;5028639;28;19966;-95
2023/09/18 11:15:39;;;;;;;;;;;;;;;;;;5029142;28;19913;-93
2023/09/18 11:18:19;;;;;;;;;;;;;;;;;;;;;
2023/09/18 11:20:45;;;;;;;;;;;;;;;;;;5038489;28;19913;-93
2023/09/18 11:23:11;;;;;;;;;;;;;;;;;;5030527;28;19948;-94
2023/09/18 11:25:41;;;;;;;;;;;;;;;;;;5025338;28;19913;-93
2023/09/18 11:31:02;;;;;;;;;;;;;;;;;;5018353;28;19916;-94
2023/09/18 11:33:28;;;;;;;;;;;;;;;;;;5032673;28;19917;-92
2023/09/18 11:36:00;;;;;;;;;;;;;;;;;;5046799;28;19920;-94
2023/09/18 11:38:29;;;;;;;;;;;;;;;;;;5040110;28;20071;-93
2023/09/18 11:40:57;;;;;;;;;;;;;;;;;;5038277;28;19921;-93
2023/09/18 11:43:26;;;;;;;;;;;;;;;;;;5037483;28;19909;-93
2023/09/18 11:45:55;;;;;;;;;;;;;;;;;;5038780;28;19908;-93
2023/09/18 11:48:29;;;;;;;;;;;;;;;;;;5027419;28;19917;-93
2023/09/18 11:50:58;;;;;;;;;;;;;;;;;;5038038;28;20373;-93
2023/09/18 11:53:24;;;;;;;;;;;;;;;;;;5038039;28;19916;-92
2023/09/18 11:55:50;;;;;;;;;;;;;;;;;;5038093;28;19909;-92
2023/09/18 11:58:31;;;;;;;;;;;;;;;;;;5038382;28;20372;-91
2023/09/18 12:00:57;;;;;;;;;;;;;;;;;;5034268;28;20008;-91
2023/09/18 12:03:26;;;;;;;;;;;;;;;;;;5017970;28;19971;-93
2023/09/18 12:05:52;;;;;;;;;;;;;;;;;;5036226;28;19963;-93
2023/09/18 12:08:18;;;;;;;;;;;;;;;;;;5017829;28;19917;-93
2023/09/18 12:10:45;;;;;;;;;;;;;;;;;;5017793;28;20389;-92
2023/09/18 12:13:11;;;;;;;;;;;;;;;;;;5018415;28;19910;-95
2023/09/18 12:15:43;;;;;;;;;;;;;;;;;;5019755;28;19919;-96
2023/09/18 12:18:11;;;;;;;;;;;;;;;;;;5017212;28;19909;-93
2023/09/18 12:20:43;;;;;;;;;;;;;;;;;;5017525;28;19913;-94
2023/09/18 12:23:12;;;;;;;;;;;;;;;;;;5026955;28;19912;-93
2023/09/18 12:28:23;;;;;;;;;;;;;;;;;;5034882;28;19924;-93
2023/09/18 12:30:52;;;;;;;;;;;;;;;;;;5037927;28;19916;-94
2023/09/18 12:33:19;;;;;;;;;;;;;;;;;;5043616;28;19913;-92
2023/09/18 12:35:46;;;;;;;;;;;;;;;;;;5038787;28;19909;-93
2023/09/18 12:38:15;;;;;;;;;;;;;;;;;;5040843;28;20300;-92
2023/09/18 12:40:41;;;;;;;;;;;;;;;;;;5050128;28;19939;-92
2023/09/18 12:43:07;;;;;;;;;;;;;;;;;;5040507;28;19901;-92
2023/09/18 12:45:33;;;;;;;;;;;;;;;;;;5018772;28;19909;-92
2023/09/18 12:48:03;;;;;;;;;;;;;;;;;;5037156;28;19916;-91
2023/09/18 12:50:29;;;;;;;;;;;;;;;;;;5037367;28;19916;-91
2023/09/18 12:52:56;;;;;;;;;;;;;;;;;;5033526;28;19909;-93
2023/09/18 12:55:23;;;;;;;;;;;;;;;;;;5036926;28;20358;-93
2023/09/18 12:57:52;;;;;;;;;;;;;;;;;;5037567;28;19908;-94
2023/09/18 13:00:22;;;;;;;;;;;;;;;;;;5031111;28;19916;-94
2023/09/18 13:08:06;;;;;;;;;;;;;;;;;;5034497;28;19916;-92
2023/09/18 13:10:35;;;;;;;;;;;;;;;;;;5033873;28;19909;-90
2023/09/18 13:13:10;;;;;;;;;;;;;;;;;;5033531;28;20362;-89
2023/09/18 13:15:39;;;;;;;;;;;;;;;;;;5033874;28;19947;-92
2023/09/18 13:18:08;;;;;;;;;;;;;;;;;;5033966;28;19913;-93
2023/09/18 13:31:32;;;;;;;;;;;;;;;;;;5048911;28;19967;-90
2023/09/18 13:33:58;;;;;;;;;;;;;;;;;;5057362;28;19913;-90
2023/09/18 13:36:24;;;;;;;;;;;;;;;;;;5038098;28;19923;-91
2023/09/18 13:38:50;;;;;;;;;;;;;;;;;;5038537;28;19913;-93
2023/09/18 13:41:16;;;;;;;;;;;;;;;;;;5045760;28;19905;-92
2023/09/18 13:44:01;;;;;;;;;;;;;;;;;;5083300;23;19988;-92
2023/09/18 13:46:30;;;;;;;;;;;;;;;;;;5017784;28;19922;-91
2023/09/18 13:48:59;;;;;;;;;;;;;;;;;;5007329;28;20005;-93
2023/09/18 13:51:25;;;;;;;;;;;;;;;;;;5012638;28;19909;-93
2023/09/18 13:53:51;;;;;;;;;;;;;;;;;;5017509;28;20048;-90
2023/09/18 13:56:17;;;;;;;;;;;;;;;;;;5017360;28;19964;-93
2023/09/18 13:58:43;;;;;;;;;;;;;;;;;;5015567;28;19932;-90
2023/09/18 14:01:15;;;;;;;;;;;;;;;;;;5016812;28;19936;-91
2023/09/18 14:03:58;;;;;;;;;;;;;;;;;;5018079;28;19959;-94
2023/09/18 14:06:30;;;;;;;;;;;;;;;;;;5016409;28;19932;-92
2023/09/18 14:09:05;;;;;;;;;;;;;;;;;;5022424;28;19925;-94
2023/09/18 14:11:37;;;;;;;;;;;;;;;;;;5003873;28;20362;-94
2023/09/18 14:14:03;;;;;;;;;;;;;;;;;;4998989;28;19924;-94
2023/09/18 14:17:03;;;;;;;;;;;;;;;;;;5008559;28;20357;-96
2023/09/18 14:19:25;;;;;;;;;;;;;;;;;;5034244;28;19931;-89
2023/09/18 14:21:54;;;;;;;;;;;;;;;;;;5015607;28;19943;-91
2023/09/18 14:24:25;;;;;;;;;;;;;;;;;;5010156;28;20024;-89
2023/09/18 14:26:56;;;;;;;;;;;;;;;;;;5053999;28;19913;-90
2023/09/18 14:29:22;;;;;;;;;;;;;;;;;;5012836;28;20386;-89
2023/09/18 14:31:49;;;;;;;;;;;;;;;;;;5016653;28;19917;-89
2023/09/18 14:34:15;;;;;;;;;;;;;;;;;;5000536;28;20366;-89
2023/09/18 14:36:41;;;;;;;;;;;;;;;;;;5017840;28;20000;-88
2023/09/18 14:39:08;;;;;;;;;;;;;;;;;;5020247;28;19920;-90
2023/09/18 14:44:20;;;;;;;;;;;;;;;;;;5008638;28;20338;-96
2023/09/18 14:46:55;;;;;;;;;;;;;;;;;;5003931;28;19956;-95
2023/09/18 14:52:09;;;;;;;;;;;;;;;;;;5017607;28;19916;-95
2023/09/18 15:00:13;;;;;;;;;;;;;;;;;;4938220;29;19955;-93
2023/09/18 15:02:42;;;;;;;;;;;;;;;;;;4983251;28;19909;-94
2023/09/18 15:08:09;;;;;;;;;;;;;;;;;;4972752;28;19917;-94
2023/09/18 15:10:41;;;;;;;;;;;;;;;;;;4992908;28;20437;-95
2023/09/18 15:15:55;;;;;;;;;;;;;;;;;;5017641;28;20025;-96
2023/09/18 15:18:27;;;;;;;;;;;;;;;;;;4978011;28;20434;-95
2023/09/18 15:20:54;;;;;;;;;;;;;;;;;;4978805;28;19952;-95
2023/09/18 15:23:32;;;;;;;;;;;;;;;;;;4960597;28;19997;-93
2023/09/18 15:25:58;;;;;;;;;;;;;;;;;;4960353;28;20016;-93
2023/09/18 15:28:24;;;;;;;;;;;;;;;;;;4960162;28;19976;-96
2023/09/18 15:30:56;;;;;;;;;;;;;;;;;;4961299;28;20390;-96
2023/09/18 15:33:44;;;;;;;;;;;;;;;;;;4967070;28;19989;-94
2023/09/18 15:36:11;;;;;;;;;;;;;;;;;;4988622;28;19910;-93
2023/09/18 15:38:39;;;;;;;;;;;;;;;;;;4971900;28;19925;-92
2023/09/18 15:41:14;;;;;;;;;;;;;;;;;;4961130;28;19918;-92
2023/09/18 15:43:40;;;;;;;;;;;;;;;;;;4974013;28;19922;-95
2023/09/18 15:46:26;;;;;;;;;;;;;;;;;;4969668;28;19914;-93
2023/09/18 15:48:52;;;;;;;;;;;;;;;;;;4962523;28;19918;-94
2023/09/18 15:51:18;;;;;;;;;;;;;;;;;;4976800;28;19918;-94
2023/09/18 15:59:18;;;;;;;;;;;;;;;;;;4958920;29;19958;-95
2023/09/18 16:01:47;;;;;;;;;;;;;;;;;;4968043;28;20009;-93
2023/09/18 16:04:15;;;;;;;;;;;;;;;;;;4973562;28;19911;-92
2023/09/18 16:06:46;;;;;;;;;;;;;;;;;;4972996;28;19911;-93
2023/09/18 16:09:12;;;;;;;;;;;;;;;;;;4985478;28;20001;-95
2023/09/18 16:11:38;;;;;;;;;;;;;;;;;;4981738;28;19938;-93
2023/09/18 16:14:04;;;;;;;;;;;;;;;;;;4993913;28;19919;-91
2023/09/18 16:16:34;;;;;;;;;;;;;;;;;;5014741;28;20000;-92
2023/09/18 16:19:00;;;;;;;;;;;;;;;;;;4995057;28;19909;-92
2023/09/18 16:21:26;;;;;;;;;;;;;;;;;;4978120;28;19996;-92
2023/09/18 16:23:52;;;;;;;;;;;;;;;;;;4979629;28;19948;-91
2023/09/18 16:26:28;;;;;;;;;;;;;;;;;;4979151;28;20275;-93
2023/09/18 16:29:04;;;;;;;;;;;;;;;;;;4981117;28;19918;-92
2023/09/18 16:31:33;;;;;;;;;;;;;;;;;;5006644;28;19910;-93
2023/09/18 16:39:29;;;;;;;;;;;;;;;;;;5177846;23;19967;-93
2023/09/18 16:42:22;;;;;;;;;;;;;;;;;;5087037;28;19908;-94
2023/09/18 16:47:32;;;;;;;;;;;;;;;;;;5347993;22;19909;-91
2023/09/18 16:55:21;;;;;;;;;;;;;;;;;;5120807;23;20015;-96
2023/09/18 17:00:19;;;;;;;;;;;;;;;;;;5151534;23;19948;-95
2023/09/18 17:05:18;;;;;;;;;;;;;;;;;;5035328;28;19925;-93
2023/09/18 17:07:56;;;;;;;;;;;;;;;;;;5021576;28;19916;-93
2023/09/18 17:10:25;;;;;;;;;;;;;;;;;;5010265;28;19941;-91
2023/09/18 17:13:00;;;;;;;;;;;;;;;;;;5002417;28;19909;-95
2023/09/18 17:15:45;;;;;;;;;;;;;;;;;;;;;
2023/09/18 17:18:14;;;;;;;;;;;;;;;;;;5021851;28;19996;-94
2023/09/18 17:34:18;;;;;;;;;;;;;;;;;;5076685;23;19926;-92
2023/09/18 17:36:44;;;;;;;;;;;;;;;;;;5022064;28;19913;-94
2023/09/18 17:44:42;;;;;;;;;;;;;;;;;;5038300;28;19956;-94
2023/09/18 17:47:08;;;;;;;;;;;;;;;;;;5027614;28;19963;-92
2023/09/18 17:49:40;;;;;;;;;;;;;;;;;;5040027;28;19917;-93
2023/09/18 17:52:09;;;;;;;;;;;;;;;;;;5021068;28;21379;-92
2023/09/18 17:54:38;;;;;;;;;;;;;;;;;;5002707;28;20008;-94
2023/09/18 17:57:07;;;;;;;;;;;;;;;;;;5007959;28;19949;-92
2023/09/18 17:59:33;;;;;;;;;;;;;;;;;;5030482;28;19960;-94
2023/09/18 18:01:59;;;;;;;;;;;;;;;;;;5017392;28;19913;-95
2023/09/18 18:04:28;;;;;;;;;;;;;;;;;;5001994;28;19964;-93
2023/09/18 18:06:54;;;;;;;;;;;;;;;;;;5000754;28;19919;-96
2023/09/18 18:09:26;;;;;;;;;;;;;;;;;;5003158;28;20016;-96
2023/09/18 18:11:53;;;;;;;;;;;;;;;;;;5002889;28;19910;-96
2023/09/18 18:14:36;;;;;;;;;;;;;;;;;;5003566;28;19910;-95
2023/09/18 18:17:02;;;;;;;;;;;;;;;;;;5002235;28;19909;-96
2023/09/18 18:19:28;;;;;;;;;;;;;;;;;;5002141;28;19910;-95
2023/09/18 18:21:57;;;;;;;;;;;;;;;;;;5001445;28;19910;-95
2023/09/18 18:24:26;;;;;;;;;;;;;;;;;;5012666;28;20169;-95
2023/09/18 18:29:47;;;;;;;;;;;;;;;;;;4990443;28;19918;-95
2023/09/18 18:32:13;;;;;;;;;;;;;;;;;;5004133;28;19956;-94
2023/09/18 18:34:55;;;;;;;;;;;;;;;;;;4988138;28;19948;-96
2023/09/18 18:37:21;;;;;;;;;;;;;;;;;;4982222;28;19964;-93
2023/09/18 18:39:50;;;;;;;;;;;;;;;;;;4983471;28;19910;-95
2023/09/18 18:42:19;;;;;;;;;;;;;;;;;;4982447;28;19910;-95
2023/09/18 18:44:46;;;;;;;;;;;;;;;;;;4985007;28;19913;-94
2023/09/18 18:47:25;;;;;;;;;;;;;;;;;;4981573;28;20282;-94
2023/09/18 18:49:54;;;;;;;;;;;;;;;;;;4990452;28;19921;-94
2023/09/18 18:52:21;;;;;;;;;;;;;;;;;;4995373;28;19959;-95
2023/09/18 18:54:48;;;;;;;;;;;;;;;;;;4989240;28;19935;-96
2023/09/18 18:57:14;;;;;;;;;;;;;;;;;;4986042;28;19940;-93
2023/09/18 18:59:42;;;;;;;;;;;;;;;;;;4990987;28;19913;-94
2023/09/18 19:02:11;;;;;;;;;;;;;;;;;;4976612;28;19910;-94
2023/09/18 19:07:27;;;;;;;;;;;;;;;;;;4977202;28;19917;-94
2023/09/18 19:09:53;;;;;;;;;;;;;;;;;;4962010;28;19965;-95
2023/09/18 19:12:19;;;;;;;;;;;;;;;;;;4961052;28;19941;-95
2023/09/18 19:14:47;;;;;;;;;;;;;;;;;;4960442;28;19918;-95
2023/09/18 19:19:58;;;;;;;;;;;;;;;;;;4977045;28;19917;-94
2023/09/18 19:22:24;;;;;;;;;;;;;;;;;;4960470;28;19949;-95
2023/09/18 19:24:50;;;;;;;;;;;;;;;;;;4959980;28;19910;-94
2023/09/18 19:27:16;;;;;;;;;;;;;;;;;;4960101;28;19965;-94
2023/09/18 19:30:04;;;;;;;;;;;;;;;;;;4960496;28;19964;-94
2023/09/18 19:32:28;;;;;;;;;;;;;;;;;;4974735;28;19914;-94
2023/09/18 19:34:54;;;;;;;;;;;;;;;;;;5019265;28;19943;-95
2023/09/18 19:37:20;;;;;;;;;;;;;;;;;;5019929;28;20421;-94
2023/09/18 19:39:49;;;;;;;;;;;;;;;;;;5019909;28;19916;-96
2023/09/18 19:42:15;;;;;;;;;;;;;;;;;;5024363;28;19914;-93
2023/09/18 19:44:42;;;;;;;;;;;;;;;;;;5029407;28;19969;-95
2023/09/18 19:47:08;;;;;;;;;;;;;;;;;;5177306;23;19909;-94
2023/09/18 19:49:37;;;;;;;;;;;;;;;;;;5040668;28;19921;-93
2023/09/18 19:52:05;;;;;;;;;;;;;;;;;;5034620;28;19995;-94
2023/09/18 19:54:32;;;;;;;;;;;;;;;;;;5018832;28;19908;-94
2023/09/18 19:59:45;;;;;;;;;;;;;;;;;;5038205;28;19916;-96
2023/09/18 20:02:11;;;;;;;;;;;;;;;;;;5001186;28;19921;-96
2023/09/18 20:04:37;;;;;;;;;;;;;;;;;;5000728;28;19910;-96
2023/09/18 20:07:12;;;;;;;;;;;;;;;;;;5003382;28;19924;-96
2023/09/18 20:09:38;;;;;;;;;;;;;;;;;;5010318;28;19929;-95
2023/09/18 20:12:09;;;;;;;;;;;;;;;;;;5022382;28;19966;-95